sensor_id;sensor_type;location;lat;lon;timestamp;temperature;humidity
14577;DHT22;7375;46.072;14.470;2022-08-21T00:00:27;25.10;62.90
14577;DHT22;7375;46.072;14.470;2022-08-21T00:03:00;25.20;63.00
14577;DHT22;7375;46.072;14.470;2022-08-21T00:05:27;25.10;63.00
14577;DHT22;7375;46.072;14.470;2022-08-21T00:07:55;25.10;63.00
14577;DHT22;7375;46.072;14.470;2022-08-21T00:10:22;25.10;63.00
14577;DHT22;7375;46.072;14.470;2022-08-21T00:12:50;25.10;63.00
14577;DHT22;7375;46.072;14.470;2022-08-21T00:15:19;25.10;63.00
14577;DHT22;7375;46.072;14.470;2022-08-21T00:17:49;25.10;63.00
14577;DHT22;7375;46.072;14.470;2022-08-21T00:20:21;25.10;63.10
14577;DHT22;7375;46.072;14.470;2022-08-21T00:22:49;25.10;63.10
14577;DHT22;7375;46.072;14.470;2022-08-21T00:25:17;25.10;63.10
14577;DHT22;7375;46.072;14.470;2022-08-21T00:27:44;25.10;63.20
14577;DHT22;7375;46.072;14.470;2022-08-21T00:30:16;25.10;63.20
14577;DHT22;7375;46.072;14.470;2022-08-21T00:32:46;25.10;63.20
14577;DHT22;7375;46.072;14.470;2022-08-21T00:35:16;25.00;63.20
14577;DHT22;7375;46.072;14.470;2022-08-21T00:37:43;25.00;63.20
14577;DHT22;7375;46.072;14.470;2022-08-21T00:40:12;25.00;63.20
14577;DHT22;7375;46.072;14.470;2022-08-21T00:42:39;25.00;63.20
14577;DHT22;7375;46.072;14.470;2022-08-21T00:45:07;25.00;63.20
14577;DHT22;7375;46.072;14.470;2022-08-21T00:47:35;25.00;63.20
14577;DHT22;7375;46.072;14.470;2022-08-21T00:50:06;25.00;63.20
14577;DHT22;7375;46.072;14.470;2022-08-21T00:52:37;25.00;63.30
14577;DHT22;7375;46.072;14.470;2022-08-21T00:55:05;25.00;63.30
14577;DHT22;7375;46.072;14.470;2022-08-21T00:57:35;25.00;63.30
14577;DHT22;7375;46.072;14.470;2022-08-21T01:00:08;25.00;63.30
14577;DHT22;7375;46.072;14.470;2022-08-21T01:02:37;25.00;63.30
14577;DHT22;7375;46.072;14.470;2022-08-21T01:05:05;25.00;63.40
14577;DHT22;7375;46.072;14.470;2022-08-21T01:07:34;25.00;63.40
14577;DHT22;7375;46.072;14.470;2022-08-21T01:10:02;25.00;63.40
14577;DHT22;7375;46.072;14.470;2022-08-21T01:12:29;25.00;63.40
14577;DHT22;7375;46.072;14.470;2022-08-21T01:14:55;25.00;63.40
14577;DHT22;7375;46.072;14.470;2022-08-21T01:17:25;25.00;63.50
14577;DHT22;7375;46.072;14.470;2022-08-21T01:19:58;25.00;63.50
14577;DHT22;7375;46.072;14.470;2022-08-21T01:22:29;24.90;63.50
14577;DHT22;7375;46.072;14.470;2022-08-21T01:24:56;24.90;63.50
14577;DHT22;7375;46.072;14.470;2022-08-21T01:27:23;24.90;63.50
14577;DHT22;7375;46.072;14.470;2022-08-21T01:29:51;24.90;63.50
14577;DHT22;7375;46.072;14.470;2022-08-21T01:32:20;24.90;63.50
14577;DHT22;7375;46.072;14.470;2022-08-21T01:34:50;24.90;63.50
14577;DHT22;7375;46.072;14.470;2022-08-21T01:37:18;24.90;63.50
14577;DHT22;7375;46.072;14.470;2022-08-21T01:39:46;24.90;63.50
14577;DHT22;7375;46.072;14.470;2022-08-21T01:42:14;24.90;63.60
14577;DHT22;7375;46.072;14.470;2022-08-21T01:44:41;24.90;63.60
14577;DHT22;7375;46.072;14.470;2022-08-21T01:47:09;24.90;63.60
14577;DHT22;7375;46.072;14.470;2022-08-21T01:49:37;24.90;63.60
14577;DHT22;7375;46.072;14.470;2022-08-21T01:52:04;24.90;63.60
14577;DHT22;7375;46.072;14.470;2022-08-21T01:54:31;24.90;63.60
14577;DHT22;7375;46.072;14.470;2022-08-21T01:57:00;24.80;64.10
14577;DHT22;7375;46.072;14.470;2022-08-21T01:59:28;24.90;63.70
14577;DHT22;7375;46.072;14.470;2022-08-21T02:01:59;24.90;63.70
14577;DHT22;7375;46.072;14.470;2022-08-21T02:04:26;24.80;63.60
14577;DHT22;7375;46.072;14.470;2022-08-21T02:06:53;24.80;63.70
14577;DHT22;7375;46.072;14.470;2022-08-21T02:09:20;24.90;63.80
14577;DHT22;7375;46.072;14.470;2022-08-21T02:11:48;24.80;63.70
14577;DHT22;7375;46.072;14.470;2022-08-21T02:14:16;24.80;63.70
14577;DHT22;7375;46.072;14.470;2022-08-21T02:16:43;24.80;63.70
14577;DHT22;7375;46.072;14.470;2022-08-21T02:19:11;24.80;63.70
14577;DHT22;7375;46.072;14.470;2022-08-21T02:21:42;24.80;63.70
14577;DHT22;7375;46.072;14.470;2022-08-21T02:24:12;24.80;63.70
14577;DHT22;7375;46.072;14.470;2022-08-21T02:26:39;24.80;63.80
14577;DHT22;7375;46.072;14.470;2022-08-21T02:29:06;24.80;63.80
14577;DHT22;7375;46.072;14.470;2022-08-21T02:31:35;24.80;63.80
14577;DHT22;7375;46.072;14.470;2022-08-21T02:34:02;24.80;63.80
14577;DHT22;7375;46.072;14.470;2022-08-21T02:36:30;24.80;63.80
14577;DHT22;7375;46.072;14.470;2022-08-21T02:38:57;24.80;63.80
14577;DHT22;7375;46.072;14.470;2022-08-21T02:41:23;24.80;63.90
14577;DHT22;7375;46.072;14.470;2022-08-21T02:43:50;24.80;63.90
14577;DHT22;7375;46.072;14.470;2022-08-21T02:46:20;24.80;63.90
14577;DHT22;7375;46.072;14.470;2022-08-21T02:48:51;24.70;63.80
14577;DHT22;7375;46.072;14.470;2022-08-21T02:51:18;24.70;63.80
14577;DHT22;7375;46.072;14.470;2022-08-21T02:53:48;24.70;63.80
14577;DHT22;7375;46.072;14.470;2022-08-21T02:56:17;24.70;63.80
14577;DHT22;7375;46.072;14.470;2022-08-21T02:58:48;24.70;63.90
14577;DHT22;7375;46.072;14.470;2022-08-21T03:01:19;24.70;63.80
14577;DHT22;7375;46.072;14.470;2022-08-21T03:03:46;24.70;63.90
14577;DHT22;7375;46.072;14.470;2022-08-21T03:06:18;24.80;64.00
14577;DHT22;7375;46.072;14.470;2022-08-21T03:08:46;24.70;63.90
14577;DHT22;7375;46.072;14.470;2022-08-21T03:11:13;24.70;63.90
14577;DHT22;7375;46.072;14.470;2022-08-21T03:13:46;24.70;64.50
14577;DHT22;7375;46.072;14.470;2022-08-21T03:16:13;24.70;63.90
14577;DHT22;7375;46.072;14.470;2022-08-21T03:18:40;24.70;64.00
14577;DHT22;7375;46.072;14.470;2022-08-21T03:21:07;24.70;64.00
14577;DHT22;7375;46.072;14.470;2022-08-21T03:23:35;24.70;63.90
14577;DHT22;7375;46.072;14.470;2022-08-21T03:26:05;24.70;64.00
14577;DHT22;7375;46.072;14.470;2022-08-21T03:28:32;24.70;64.00
14577;DHT22;7375;46.072;14.470;2022-08-21T03:31:01;24.70;64.00
14577;DHT22;7375;46.072;14.470;2022-08-21T03:33:28;24.70;64.00
14577;DHT22;7375;46.072;14.470;2022-08-21T03:35:57;24.70;64.00
14577;DHT22;7375;46.072;14.470;2022-08-21T03:38:26;24.70;64.00
14577;DHT22;7375;46.072;14.470;2022-08-21T03:40:55;24.70;64.00
14577;DHT22;7375;46.072;14.470;2022-08-21T03:43:21;24.70;64.00
14577;DHT22;7375;46.072;14.470;2022-08-21T03:45:48;24.60;63.90
14577;DHT22;7375;46.072;14.470;2022-08-21T03:48:18;24.60;64.00
14577;DHT22;7375;46.072;14.470;2022-08-21T03:50:45;24.70;64.00
14577;DHT22;7375;46.072;14.470;2022-08-21T03:53:15;24.70;64.10
14577;DHT22;7375;46.072;14.470;2022-08-21T03:55:42;24.60;64.00
14577;DHT22;7375;46.072;14.470;2022-08-21T03:58:13;24.60;64.00
14577;DHT22;7375;46.072;14.470;2022-08-21T04:00:40;24.60;64.00
14577;DHT22;7375;46.072;14.470;2022-08-21T04:03:07;24.60;64.00
14577;DHT22;7375;46.072;14.470;2022-08-21T04:05:33;24.60;64.00
14577;DHT22;7375;46.072;14.470;2022-08-21T04:08:04;24.60;64.10
14577;DHT22;7375;46.072;14.470;2022-08-21T04:10:37;24.60;64.00
14577;DHT22;7375;46.072;14.470;2022-08-21T04:13:08;24.60;64.00
14577;DHT22;7375;46.072;14.470;2022-08-21T04:15:36;24.60;64.10
14577;DHT22;7375;46.072;14.470;2022-08-21T04:18:03;24.60;64.00
14577;DHT22;7375;46.072;14.470;2022-08-21T04:20:31;24.60;64.10
14577;DHT22;7375;46.072;14.470;2022-08-21T04:22:58;24.60;64.10
14577;DHT22;7375;46.072;14.470;2022-08-21T04:25:25;24.60;64.00
14577;DHT22;7375;46.072;14.470;2022-08-21T04:27:57;24.60;64.10
14577;DHT22;7375;46.072;14.470;2022-08-21T04:30:24;24.60;64.10
14577;DHT22;7375;46.072;14.470;2022-08-21T04:32:55;24.60;64.10
14577;DHT22;7375;46.072;14.470;2022-08-21T04:35:23;24.60;64.10
14577;DHT22;7375;46.072;14.470;2022-08-21T04:38:00;24.60;64.10
14577;DHT22;7375;46.072;14.470;2022-08-21T04:40:27;24.60;64.10
14577;DHT22;7375;46.072;14.470;2022-08-21T04:42:55;24.60;64.10
14577;DHT22;7375;46.072;14.470;2022-08-21T04:45:26;24.60;64.10
14577;DHT22;7375;46.072;14.470;2022-08-21T04:47:58;24.60;64.10
14577;DHT22;7375;46.072;14.470;2022-08-21T04:50:26;24.60;64.10
14577;DHT22;7375;46.072;14.470;2022-08-21T04:52:55;24.60;64.10
14577;DHT22;7375;46.072;14.470;2022-08-21T04:55:23;24.60;64.10
14577;DHT22;7375;46.072;14.470;2022-08-21T04:57:53;24.60;64.10
14577;DHT22;7375;46.072;14.470;2022-08-21T05:00:20;24.60;64.10
14577;DHT22;7375;46.072;14.470;2022-08-21T05:02:49;24.60;64.10
14577;DHT22;7375;46.072;14.470;2022-08-21T05:05:21;24.60;64.10
14577;DHT22;7375;46.072;14.470;2022-08-21T05:07:48;24.60;64.10
14577;DHT22;7375;46.072;14.470;2022-08-21T05:10:15;24.60;64.10
14577;DHT22;7375;46.072;14.470;2022-08-21T05:12:45;24.60;64.00
14577;DHT22;7375;46.072;14.470;2022-08-21T05:15:12;24.60;64.10
14577;DHT22;7375;46.072;14.470;2022-08-21T05:17:39;24.60;64.00
14577;DHT22;7375;46.072;14.470;2022-08-21T05:20:06;24.60;64.00
14577;DHT22;7375;46.072;14.470;2022-08-21T05:22:35;24.60;64.00
14577;DHT22;7375;46.072;14.470;2022-08-21T05:25:04;24.60;64.00
14577;DHT22;7375;46.072;14.470;2022-08-21T05:27:31;24.60;64.00
14577;DHT22;7375;46.072;14.470;2022-08-21T05:29:58;24.60;64.30
14577;DHT22;7375;46.072;14.470;2022-08-21T05:32:26;24.60;64.00
14577;DHT22;7375;46.072;14.470;2022-08-21T05:35:11;24.60;64.00
14577;DHT22;7375;46.072;14.470;2022-08-21T05:37:42;24.60;63.90
14577;DHT22;7375;46.072;14.470;2022-08-21T05:40:09;24.60;63.90
14577;DHT22;7375;46.072;14.470;2022-08-21T05:42:39;24.60;63.90
14577;DHT22;7375;46.072;14.470;2022-08-21T05:45:09;24.60;63.90
14577;DHT22;7375;46.072;14.470;2022-08-21T05:47:38;24.70;63.90
14577;DHT22;7375;46.072;14.470;2022-08-21T05:50:08;24.60;63.80
14577;DHT22;7375;46.072;14.470;2022-08-21T05:52:35;24.70;63.90
14577;DHT22;7375;46.072;14.470;2022-08-21T05:55:04;24.70;63.80
14577;DHT22;7375;46.072;14.470;2022-08-21T05:57:31;24.70;63.80
14577;DHT22;7375;46.072;14.470;2022-08-21T06:00:01;24.70;63.80
14577;DHT22;7375;46.072;14.470;2022-08-21T06:02:28;24.70;63.80
14577;DHT22;7375;46.072;14.470;2022-08-21T06:04:56;24.70;63.80
14577;DHT22;7375;46.072;14.470;2022-08-21T06:07:23;24.70;63.70
14577;DHT22;7375;46.072;14.470;2022-08-21T06:09:52;24.70;63.70
14577;DHT22;7375;46.072;14.470;2022-08-21T06:12:21;24.70;63.70
14577;DHT22;7375;46.072;14.470;2022-08-21T06:14:48;24.70;63.70
14577;DHT22;7375;46.072;14.470;2022-08-21T06:17:15;24.70;63.70
14577;DHT22;7375;46.072;14.470;2022-08-21T06:19:42;24.70;63.70
14577;DHT22;7375;46.072;14.470;2022-08-21T06:22:10;24.70;63.70
14577;DHT22;7375;46.072;14.470;2022-08-21T06:24:37;24.70;63.70
14577;DHT22;7375;46.072;14.470;2022-08-21T06:27:06;24.70;63.70
14577;DHT22;7375;46.072;14.470;2022-08-21T06:29:38;24.70;63.70
14577;DHT22;7375;46.072;14.470;2022-08-21T06:32:05;24.70;63.70
14577;DHT22;7375;46.072;14.470;2022-08-21T06:34:36;24.70;63.60
14577;DHT22;7375;46.072;14.470;2022-08-21T06:37:06;24.70;63.70
14577;DHT22;7375;46.072;14.470;2022-08-21T06:39:36;24.70;63.70
14577;DHT22;7375;46.072;14.470;2022-08-21T06:42:03;24.70;63.60
14577;DHT22;7375;46.072;14.470;2022-08-21T06:44:32;24.70;63.60
14577;DHT22;7375;46.072;14.470;2022-08-21T06:47:01;24.80;63.60
14577;DHT22;7375;46.072;14.470;2022-08-21T06:49:27;24.80;63.50
14577;DHT22;7375;46.072;14.470;2022-08-21T06:51:54;24.80;63.50
14577;DHT22;7375;46.072;14.470;2022-08-21T06:54:21;24.80;63.50
14577;DHT22;7375;46.072;14.470;2022-08-21T06:56:48;24.80;63.40
14577;DHT22;7375;46.072;14.470;2022-08-21T06:59:15;24.80;63.30
14577;DHT22;7375;46.072;14.470;2022-08-21T07:01:44;24.90;63.30
14577;DHT22;7375;46.072;14.470;2022-08-21T07:04:13;24.90;63.30
14577;DHT22;7375;46.072;14.470;2022-08-21T07:06:45;24.90;63.30
14577;DHT22;7375;46.072;14.470;2022-08-21T07:09:12;24.90;63.20
14577;DHT22;7375;46.072;14.470;2022-08-21T07:11:39;24.90;63.20
14577;DHT22;7375;46.072;14.470;2022-08-21T07:14:06;24.90;63.10
14577;DHT22;7375;46.072;14.470;2022-08-21T07:16:33;24.90;63.10
14577;DHT22;7375;46.072;14.470;2022-08-21T07:19:02;25.00;63.30
14577;DHT22;7375;46.072;14.470;2022-08-21T07:21:31;25.10;62.80
14577;DHT22;7375;46.072;14.470;2022-08-21T07:23:58;25.30;62.60
14577;DHT22;7375;46.072;14.470;2022-08-21T07:26:24;25.30;62.10
14577;DHT22;7375;46.072;14.470;2022-08-21T07:28:54;25.30;62.10
14577;DHT22;7375;46.072;14.470;2022-08-21T07:31:22;25.40;62.10
14577;DHT22;7375;46.072;14.470;2022-08-21T07:33:52;25.40;61.80
14577;DHT22;7375;46.072;14.470;2022-08-21T07:36:20;25.40;61.90
14577;DHT22;7375;46.072;14.470;2022-08-21T07:38:48;25.40;61.90
14577;DHT22;7375;46.072;14.470;2022-08-21T07:41:19;25.40;61.90
14577;DHT22;7375;46.072;14.470;2022-08-21T07:43:46;25.40;61.80
14577;DHT22;7375;46.072;14.470;2022-08-21T07:46:13;25.40;61.90
14577;DHT22;7375;46.072;14.470;2022-08-21T07:48:44;25.30;61.90
14577;DHT22;7375;46.072;14.470;2022-08-21T07:51:11;25.40;62.00
14577;DHT22;7375;46.072;14.470;2022-08-21T07:53:42;25.40;62.00
14577;DHT22;7375;46.072;14.470;2022-08-21T07:56:18;25.40;62.00
14577;DHT22;7375;46.072;14.470;2022-08-21T07:58:45;25.40;61.80
14577;DHT22;7375;46.072;14.470;2022-08-21T08:01:14;25.40;61.60
14577;DHT22;7375;46.072;14.470;2022-08-21T08:03:41;25.70;61.50
14577;DHT22;7375;46.072;14.470;2022-08-21T08:06:08;25.80;61.00
14577;DHT22;7375;46.072;14.470;2022-08-21T08:08:37;25.80;61.00
14577;DHT22;7375;46.072;14.470;2022-08-21T08:11:04;25.80;61.10
14577;DHT22;7375;46.072;14.470;2022-08-21T08:13:37;25.70;61.10
14577;DHT22;7375;46.072;14.470;2022-08-21T08:16:04;25.70;61.30
14577;DHT22;7375;46.072;14.470;2022-08-21T08:18:31;25.70;61.30
14577;DHT22;7375;46.072;14.470;2022-08-21T08:20:58;25.60;61.30
14577;DHT22;7375;46.072;14.470;2022-08-21T08:23:25;25.60;61.40
14577;DHT22;7375;46.072;14.470;2022-08-21T08:25:53;25.60;61.40
14577;DHT22;7375;46.072;14.470;2022-08-21T08:28:19;25.70;61.50
14577;DHT22;7375;46.072;14.470;2022-08-21T08:30:48;25.70;61.60
14577;DHT22;7375;46.072;14.470;2022-08-21T08:33:16;25.70;61.50
14577;DHT22;7375;46.072;14.470;2022-08-21T08:35:47;25.70;61.40
14577;DHT22;7375;46.072;14.470;2022-08-21T08:38:15;25.70;61.40
14577;DHT22;7375;46.072;14.470;2022-08-21T08:40:45;25.70;61.40
14577;DHT22;7375;46.072;14.470;2022-08-21T08:43:13;25.70;61.40
14577;DHT22;7375;46.072;14.470;2022-08-21T08:45:42;25.70;61.40
14577;DHT22;7375;46.072;14.470;2022-08-21T08:48:13;25.70;61.40
14577;DHT22;7375;46.072;14.470;2022-08-21T08:50:45;25.60;61.40
14577;DHT22;7375;46.072;14.470;2022-08-21T08:53:14;25.60;61.30
14577;DHT22;7375;46.072;14.470;2022-08-21T08:55:45;25.60;61.30
14577;DHT22;7375;46.072;14.470;2022-08-21T08:58:16;25.70;61.30
14577;DHT22;7375;46.072;14.470;2022-08-21T09:00:43;25.70;61.30
14577;DHT22;7375;46.072;14.470;2022-08-21T09:03:13;25.70;61.20
14577;DHT22;7375;46.072;14.470;2022-08-21T09:05:43;25.70;61.10
14577;DHT22;7375;46.072;14.470;2022-08-21T09:08:18;25.70;61.10
14577;DHT22;7375;46.072;14.470;2022-08-21T09:10:48;25.70;61.20
14577;DHT22;7375;46.072;14.470;2022-08-21T09:13:19;25.70;61.10
14577;DHT22;7375;46.072;14.470;2022-08-21T09:15:50;25.80;61.00
14577;DHT22;7375;46.072;14.470;2022-08-21T09:18:25;25.90;61.00
14577;DHT22;7375;46.072;14.470;2022-08-21T09:20:57;26.00;60.80
14577;DHT22;7375;46.072;14.470;2022-08-21T09:23:32;26.10;60.70
14577;DHT22;7375;46.072;14.470;2022-08-21T09:26:04;26.10;60.40
14577;DHT22;7375;46.072;14.470;2022-08-21T09:28:32;26.20;60.30
14577;DHT22;7375;46.072;14.470;2022-08-21T09:31:00;26.20;60.10
14577;DHT22;7375;46.072;14.470;2022-08-21T09:33:29;26.40;59.90
14577;DHT22;7375;46.072;14.470;2022-08-21T09:36:00;26.30;59.90
14577;DHT22;7375;46.072;14.470;2022-08-21T09:38:29;26.40;59.90
14577;DHT22;7375;46.072;14.470;2022-08-21T09:40:58;26.40;59.20
14577;DHT22;7375;46.072;14.470;2022-08-21T09:43:28;26.40;59.40
14577;DHT22;7375;46.072;14.470;2022-08-21T09:46:03;26.30;59.50
14577;DHT22;7375;46.072;14.470;2022-08-21T09:48:41;26.40;59.60
14577;DHT22;7375;46.072;14.470;2022-08-21T09:51:09;26.50;59.00
14577;DHT22;7375;46.072;14.470;2022-08-21T09:53:37;26.50;58.80
14577;DHT22;7375;46.072;14.470;2022-08-21T09:56:16;26.50;59.00
14577;DHT22;7375;46.072;14.470;2022-08-21T09:59:00;26.40;59.10
14577;DHT22;7375;46.072;14.470;2022-08-21T10:01:27;26.50;59.10
14577;DHT22;7375;46.072;14.470;2022-08-21T10:04:03;26.50;59.00
14577;DHT22;7375;46.072;14.470;2022-08-21T10:06:30;26.40;59.20
14577;DHT22;7375;46.072;14.470;2022-08-21T10:09:04;26.50;59.20
14577;DHT22;7375;46.072;14.470;2022-08-21T10:11:33;26.50;59.00
14577;DHT22;7375;46.072;14.470;2022-08-21T10:14:03;26.50;59.10
14577;DHT22;7375;46.072;14.470;2022-08-21T10:16:38;26.50;59.10
14577;DHT22;7375;46.072;14.470;2022-08-21T10:19:14;26.50;59.10
14577;DHT22;7375;46.072;14.470;2022-08-21T10:21:46;26.40;59.00
14577;DHT22;7375;46.072;14.470;2022-08-21T10:24:29;26.50;58.90
14577;DHT22;7375;46.072;14.470;2022-08-21T10:27:02;26.50;59.10
14577;DHT22;7375;46.072;14.470;2022-08-21T10:29:35;26.40;59.00
14577;DHT22;7375;46.072;14.470;2022-08-21T10:32:12;26.50;58.90
14577;DHT22;7375;46.072;14.470;2022-08-21T10:34:43;26.50;58.80
14577;DHT22;7375;46.072;14.470;2022-08-21T10:37:18;26.50;58.90
14577;DHT22;7375;46.072;14.470;2022-08-21T10:39:48;26.50;59.00
14577;DHT22;7375;46.072;14.470;2022-08-21T10:42:23;26.50;59.10
14577;DHT22;7375;46.072;14.470;2022-08-21T10:44:55;26.40;59.00
14577;DHT22;7375;46.072;14.470;2022-08-21T10:47:25;26.40;58.80
14577;DHT22;7375;46.072;14.470;2022-08-21T10:50:00;26.40;58.80
14577;DHT22;7375;46.072;14.470;2022-08-21T10:52:35;26.50;59.00
14577;DHT22;7375;46.072;14.470;2022-08-21T10:55:04;26.50;58.90
14577;DHT22;7375;46.072;14.470;2022-08-21T10:57:33;26.50;58.80
14577;DHT22;7375;46.072;14.470;2022-08-21T11:00:04;26.50;58.80
14577;DHT22;7375;46.072;14.470;2022-08-21T11:02:34;26.50;58.80
14577;DHT22;7375;46.072;14.470;2022-08-21T11:05:05;26.50;58.90
14577;DHT22;7375;46.072;14.470;2022-08-21T11:07:36;26.50;58.80
14577;DHT22;7375;46.072;14.470;2022-08-21T11:10:08;26.50;58.80
14577;DHT22;7375;46.072;14.470;2022-08-21T11:12:39;26.50;58.70
14577;DHT22;7375;46.072;14.470;2022-08-21T11:15:11;26.50;58.80
14577;DHT22;7375;46.072;14.470;2022-08-21T11:17:43;26.50;58.70
14577;DHT22;7375;46.072;14.470;2022-08-21T11:20:13;26.50;58.80
14577;DHT22;7375;46.072;14.470;2022-08-21T11:22:43;26.50;58.70
14577;DHT22;7375;46.072;14.470;2022-08-21T11:25:13;26.50;58.60
14577;DHT22;7375;46.072;14.470;2022-08-21T11:27:45;26.50;58.60
14577;DHT22;7375;46.072;14.470;2022-08-21T11:30:12;26.50;58.70
14577;DHT22;7375;46.072;14.470;2022-08-21T11:32:49;26.50;58.60
14577;DHT22;7375;46.072;14.470;2022-08-21T11:35:23;26.60;58.70
14577;DHT22;7375;46.072;14.470;2022-08-21T11:37:55;26.50;58.60
14577;DHT22;7375;46.072;14.470;2022-08-21T11:40:31;26.60;58.70
14577;DHT22;7375;46.072;14.470;2022-08-21T11:43:02;26.50;58.50
14577;DHT22;7375;46.072;14.470;2022-08-21T11:45:33;26.50;58.70
14577;DHT22;7375;46.072;14.470;2022-08-21T11:48:05;26.50;58.50
14577;DHT22;7375;46.072;14.470;2022-08-21T11:50:36;26.60;58.60
14577;DHT22;7375;46.072;14.470;2022-08-21T11:53:08;26.60;58.60
14577;DHT22;7375;46.072;14.470;2022-08-21T11:55:36;26.60;58.40
14577;DHT22;7375;46.072;14.470;2022-08-21T11:58:08;26.60;58.50
14577;DHT22;7375;46.072;14.470;2022-08-21T12:00:38;26.60;58.50
14577;DHT22;7375;46.072;14.470;2022-08-21T12:03:07;26.60;58.60
14577;DHT22;7375;46.072;14.470;2022-08-21T12:05:38;26.60;58.50
14577;DHT22;7375;46.072;14.470;2022-08-21T12:08:08;26.60;58.50
14577;DHT22;7375;46.072;14.470;2022-08-21T12:10:38;26.60;58.40
14577;DHT22;7375;46.072;14.470;2022-08-21T12:13:07;26.60;58.40
14577;DHT22;7375;46.072;14.470;2022-08-21T12:15:36;26.60;58.50
14577;DHT22;7375;46.072;14.470;2022-08-21T12:18:20;26.60;58.40
14577;DHT22;7375;46.072;14.470;2022-08-21T12:20:58;26.60;59.00
14577;DHT22;7375;46.072;14.470;2022-08-21T12:23:26;26.60;58.40
14577;DHT22;7375;46.072;14.470;2022-08-21T12:26:09;26.60;58.40
14577;DHT22;7375;46.072;14.470;2022-08-21T12:28:37;26.60;58.40
14577;DHT22;7375;46.072;14.470;2022-08-21T12:31:04;26.60;58.40
14577;DHT22;7375;46.072;14.470;2022-08-21T12:33:31;26.60;58.40
14577;DHT22;7375;46.072;14.470;2022-08-21T12:36:04;26.60;58.60
14577;DHT22;7375;46.072;14.470;2022-08-21T12:38:33;26.60;58.50
14577;DHT22;7375;46.072;14.470;2022-08-21T12:41:06;26.60;58.50
14577;DHT22;7375;46.072;14.470;2022-08-21T12:43:37;26.50;58.40
14577;DHT22;7375;46.072;14.470;2022-08-21T12:46:05;26.50;58.40
14577;DHT22;7375;46.072;14.470;2022-08-21T12:48:33;26.50;58.40
14577;DHT22;7375;46.072;14.470;2022-08-21T12:51:07;26.50;58.50
14577;DHT22;7375;46.072;14.470;2022-08-21T12:53:38;26.50;58.50
14577;DHT22;7375;46.072;14.470;2022-08-21T12:56:08;26.50;58.50
14577;DHT22;7375;46.072;14.470;2022-08-21T12:58:35;26.50;58.40
14577;DHT22;7375;46.072;14.470;2022-08-21T13:01:03;26.50;58.50
14577;DHT22;7375;46.072;14.470;2022-08-21T13:03:30;26.40;58.40
14577;DHT22;7375;46.072;14.470;2022-08-21T13:05:58;26.40;58.20
14577;DHT22;7375;46.072;14.470;2022-08-21T13:08:26;26.40;58.30
14577;DHT22;7375;46.072;14.470;2022-08-21T13:10:58;26.40;58.30
14577;DHT22;7375;46.072;14.470;2022-08-21T13:13:28;26.40;58.20
14577;DHT22;7375;46.072;14.470;2022-08-21T13:15:59;26.40;58.20
14577;DHT22;7375;46.072;14.470;2022-08-21T13:18:27;26.40;58.10
14577;DHT22;7375;46.072;14.470;2022-08-21T13:21:02;26.40;58.20
14577;DHT22;7375;46.072;14.470;2022-08-21T13:23:31;26.40;58.20
14577;DHT22;7375;46.072;14.470;2022-08-21T13:25:57;26.40;58.20
14577;DHT22;7375;46.072;14.470;2022-08-21T13:28:31;26.40;58.20
14577;DHT22;7375;46.072;14.470;2022-08-21T13:30:58;26.30;58.10
14577;DHT22;7375;46.072;14.470;2022-08-21T13:33:29;26.30;58.10
14577;DHT22;7375;46.072;14.470;2022-08-21T13:36:00;26.30;58.10
14577;DHT22;7375;46.072;14.470;2022-08-21T13:38:29;26.30;58.10
14577;DHT22;7375;46.072;14.470;2022-08-21T13:41:01;26.30;58.50
14577;DHT22;7375;46.072;14.470;2022-08-21T13:43:30;26.30;58.50
14577;DHT22;7375;46.072;14.470;2022-08-21T13:45:58;26.30;58.70
14577;DHT22;7375;46.072;14.470;2022-08-21T13:48:27;26.20;58.50
14577;DHT22;7375;46.072;14.470;2022-08-21T13:50:57;26.30;58.80
14577;DHT22;7375;46.072;14.470;2022-08-21T13:53:27;26.30;58.60
14577;DHT22;7375;46.072;14.470;2022-08-21T13:55:55;26.20;58.60
14577;DHT22;7375;46.072;14.470;2022-08-21T13:58:27;26.20;58.50
14577;DHT22;7375;46.072;14.470;2022-08-21T14:00:54;26.30;58.80
14577;DHT22;7375;46.072;14.470;2022-08-21T14:03:30;26.20;58.70
14577;DHT22;7375;46.072;14.470;2022-08-21T14:05:57;26.20;58.70
14577;DHT22;7375;46.072;14.470;2022-08-21T14:08:26;26.20;58.60
14577;DHT22;7375;46.072;14.470;2022-08-21T14:10:54;26.20;59.00
14577;DHT22;7375;46.072;14.470;2022-08-21T14:13:28;26.20;58.90
14577;DHT22;7375;46.072;14.470;2022-08-21T14:15:56;26.20;58.80
14577;DHT22;7375;46.072;14.470;2022-08-21T14:18:26;26.20;59.00
14577;DHT22;7375;46.072;14.470;2022-08-21T14:21:03;26.20;59.00
14577;DHT22;7375;46.072;14.470;2022-08-21T14:23:30;26.20;58.90
14577;DHT22;7375;46.072;14.470;2022-08-21T14:25:58;26.20;59.00
14577;DHT22;7375;46.072;14.470;2022-08-21T14:28:26;26.20;59.00
14577;DHT22;7375;46.072;14.470;2022-08-21T14:30:55;26.20;58.70
14577;DHT22;7375;46.072;14.470;2022-08-21T14:33:23;26.20;58.70
14577;DHT22;7375;46.072;14.470;2022-08-21T14:35:51;26.20;58.60
14577;DHT22;7375;46.072;14.470;2022-08-21T14:38:19;26.20;58.90
14577;DHT22;7375;46.072;14.470;2022-08-21T14:40:47;26.20;58.90
14577;DHT22;7375;46.072;14.470;2022-08-21T14:43:17;26.20;58.70
14577;DHT22;7375;46.072;14.470;2022-08-21T14:45:45;26.20;58.80
14577;DHT22;7375;46.072;14.470;2022-08-21T14:48:15;26.20;59.00
14577;DHT22;7375;46.072;14.470;2022-08-21T14:50:42;26.20;59.10
14577;DHT22;7375;46.072;14.470;2022-08-21T14:53:09;26.20;59.10
14577;DHT22;7375;46.072;14.470;2022-08-21T14:55:39;26.20;59.00
14577;DHT22;7375;46.072;14.470;2022-08-21T14:58:24;26.20;58.80
14577;DHT22;7375;46.072;14.470;2022-08-21T15:00:51;26.20;58.90
14577;DHT22;7375;46.072;14.470;2022-08-21T15:03:20;26.20;58.90
14577;DHT22;7375;46.072;14.470;2022-08-21T15:05:48;26.20;59.10
14577;DHT22;7375;46.072;14.470;2022-08-21T15:08:15;26.20;59.10
14577;DHT22;7375;46.072;14.470;2022-08-21T15:10:42;26.20;59.10
14577;DHT22;7375;46.072;14.470;2022-08-21T15:13:09;26.20;59.10
14577;DHT22;7375;46.072;14.470;2022-08-21T15:15:39;26.10;59.10
14577;DHT22;7375;46.072;14.470;2022-08-21T15:18:06;26.20;58.90
14577;DHT22;7375;46.072;14.470;2022-08-21T15:20:35;26.20;59.20
14577;DHT22;7375;46.072;14.470;2022-08-21T15:23:03;26.20;59.10
14577;DHT22;7375;46.072;14.470;2022-08-21T15:25:30;26.20;59.20
14577;DHT22;7375;46.072;14.470;2022-08-21T15:27:58;26.10;59.20
14577;DHT22;7375;46.072;14.470;2022-08-21T15:30:25;26.10;59.20
14577;DHT22;7375;46.072;14.470;2022-08-21T15:32:55;26.10;59.10
14577;DHT22;7375;46.072;14.470;2022-08-21T15:35:22;26.10;59.20
14577;DHT22;7375;46.072;14.470;2022-08-21T15:37:50;26.10;59.10
14577;DHT22;7375;46.072;14.470;2022-08-21T15:40:17;26.10;59.20
14577;DHT22;7375;46.072;14.470;2022-08-21T15:42:44;26.10;59.20